Accueil
METAR-TAF:

METAR-TAF

Aéroports :

Ndjamena, Tchad

Aéroport international de Ndjamena

latitude: 12-08N, longitude: 015-02E, altitude: 295 m

Observation

Le bulletin a été fait il y a 1 heure et 33 minutes, à 02:00 UTC
Vent calme
Température 32°C
Humidité 67%
Pression 1010 hPa
Visibilité 10 km ou plus
pas de nuages en-dessous de 1500 mètres et pas de cumulonimbus.

METAR: FTTJ 260200Z 00000KT CAVOK 32/25 Q1010 NOSIG

Heure: 04:33 (03:33 UTC)

Prévision

Le bulletin a été fait il y a 4 heures et 33 minutes, à 23:00 UTC
Prévision valable du 26 à 00 UTC au 27 à 06 UTC
Vent 5 kt de direction variable
Visibilité: 8000 m
Probabilité 30% :
Temporairement
du 26 à 12 UTC au 26 à 18 UTC
Vent 15 kt de direction variable avec des rafales jusqu'à 30 kt
Visibilité: 3000 m
orage, Chasse-poussière élevée

TAF: FTTJ 252300Z 2600/2706 VRB05KT 8000 NSC PROB30 TEMPO 2612/2618 VRB15G30KT 3000 TS BLDU

Observations et prévisions météorologiques de plus de 4000 aéroports (messages METAR et TAF).

Les stations disponibles sont représentées par des disques jaunes et rouges sur la carte.

Passer la souris dessus pour voir le nom de la station.

Cliquer dessus pour voir les observations et prévisions météorologiques.

Pour changer de carte: cliquez sur les boutons verts avec une croix noire pour zoomer, sur le bouton vert avec un tiret pour effectuer un zoom arrière, ou sur les flèches vertes pour les cartes adjacentes.


METAR-TAF: